sensor_id;sensor_type;location;lat;lon;timestamp;pressure;altitude;pressure_sealevel;temperature;humidity
58385;BME280;44185;47.844;8.966;2023-04-01T00:01:14;95131.50;;;5.79;100.00
58385;BME280;44185;47.844;8.966;2023-04-01T00:03:41;95129.56;;;5.82;100.00
58385;BME280;44185;47.844;8.966;2023-04-01T00:06:06;95144.38;;;5.83;100.00
58385;BME280;44185;47.844;8.966;2023-04-01T00:08:32;95131.63;;;5.78;100.00
58385;BME280;44185;47.844;8.966;2023-04-01T00:10:57;95135.28;;;5.65;100.00
58385;BME280;44185;47.844;8.966;2023-04-01T00:13:24;95120.63;;;5.63;100.00
58385;BME280;44185;47.844;8.966;2023-04-01T00:15:49;95121.34;;;5.65;100.00
58385;BME280;44185;47.844;8.966;2023-04-01T00:18:15;95113.31;;;5.66;100.00
58385;BME280;44185;47.844;8.966;2023-04-01T00:20:44;95111.34;;;5.59;100.00
58385;BME280;44185;47.844;8.966;2023-04-01T00:23:10;95113.28;;;5.56;100.00
58385;BME280;44185;47.844;8.966;2023-04-01T00:25:36;95121.09;;;5.47;100.00
58385;BME280;44185;47.844;8.966;2023-04-01T00:28:01;95115.84;;;5.47;100.00
58385;BME280;44185;47.844;8.966;2023-04-01T00:30:27;95124.66;;;5.45;100.00
58385;BME280;44185;47.844;8.966;2023-04-01T00:32:52;95123.13;;;5.43;100.00
58385;BME280;44185;47.844;8.966;2023-04-01T00:35:18;95116.94;;;5.44;100.00
58385;BME280;44185;47.844;8.966;2023-04-01T00:37:45;95126.84;;;5.40;100.00
58385;BME280;44185;47.844;8.966;2023-04-01T00:40:22;95125.44;;;5.36;100.00
58385;BME280;44185;47.844;8.966;2023-04-01T00:42:48;95120.38;;;5.44;100.00
58385;BME280;44185;47.844;8.966;2023-04-01T00:45:31;95132.53;;;5.45;100.00
58385;BME280;44185;47.844;8.966;2023-04-01T00:47:59;95124.03;;;5.32;100.00
58385;BME280;44185;47.844;8.966;2023-04-01T00:50:28;95126.34;;;5.25;100.00
58385;BME280;44185;47.844;8.966;2023-04-01T00:52:55;95123.28;;;5.41;100.00
58385;BME280;44185;47.844;8.966;2023-04-01T00:55:22;95124.03;;;5.32;100.00
58385;BME280;44185;47.844;8.966;2023-04-01T00:57:49;95117.00;;;5.32;100.00
58385;BME280;44185;47.844;8.966;2023-04-01T01:00:17;95107.69;;;5.28;100.00
58385;BME280;44185;47.844;8.966;2023-04-01T01:02:45;95097.72;;;5.22;100.00
58385;BME280;44185;47.844;8.966;2023-04-01T01:05:12;95101.44;;;5.19;100.00
58385;BME280;44185;47.844;8.966;2023-04-01T01:07:41;95108.41;;;5.30;100.00
58385;BME280;44185;47.844;8.966;2023-04-01T01:10:16;95113.66;;;5.30;100.00
58385;BME280;44185;47.844;8.966;2023-04-01T01:12:45;95120.34;;;5.23;100.00
58385;BME280;44185;47.844;8.966;2023-04-01T01:15:16;95122.88;;;5.25;100.00
58385;BME280;44185;47.844;8.966;2023-04-01T01:17:54;95116.78;;;5.24;100.00
58385;BME280;44185;47.844;8.966;2023-04-01T01:20:36;95120.44;;;5.11;100.00
58385;BME280;44185;47.844;8.966;2023-04-01T01:26:09;95116.38;;;5.07;100.00
58385;BME280;44185;47.844;8.966;2023-04-01T01:28:47;95120.53;;;5.10;100.00
58385;BME280;44185;47.844;8.966;2023-04-01T01:31:20;95117.84;;;5.00;100.00
58385;BME280;44185;47.844;8.966;2023-04-01T01:33:56;95119.28;;;5.04;100.00
58385;BME280;44185;47.844;8.966;2023-04-01T01:36:29;95112.84;;;4.97;100.00
58385;BME280;44185;47.844;8.966;2023-04-01T01:38:57;95107.94;;;5.04;100.00
58385;BME280;44185;47.844;8.966;2023-04-01T01:41:25;95109.16;;;4.99;100.00
58385;BME280;44185;47.844;8.966;2023-04-01T01:43:53;95095.81;;;4.91;100.00
58385;BME280;44185;47.844;8.966;2023-04-01T01:46:22;95092.13;;;4.94;100.00
58385;BME280;44185;47.844;8.966;2023-04-01T01:48:49;95099.28;;;4.92;100.00
58385;BME280;44185;47.844;8.966;2023-04-01T01:51:16;95089.19;;;4.87;100.00
58385;BME280;44185;47.844;8.966;2023-04-01T01:53:43;95084.63;;;4.89;100.00
58385;BME280;44185;47.844;8.966;2023-04-01T01:56:10;95076.06;;;4.87;100.00
58385;BME280;44185;47.844;8.966;2023-04-01T01:58:39;95088.09;;;4.89;100.00
58385;BME280;44185;47.844;8.966;2023-04-01T02:01:06;95089.38;;;4.95;100.00
58385;BME280;44185;47.844;8.966;2023-04-01T02:03:36;95088.75;;;5.03;100.00
58385;BME280;44185;47.844;8.966;2023-04-01T02:06:05;95086.38;;;5.00;100.00
58385;BME280;44185;47.844;8.966;2023-04-01T02:08:34;95097.31;;;5.05;100.00
58385;BME280;44185;47.844;8.966;2023-04-01T02:11:03;95095.69;;;5.04;100.00
58385;BME280;44185;47.844;8.966;2023-04-01T02:13:34;95093.66;;;4.96;100.00
58385;BME280;44185;47.844;8.966;2023-04-01T02:16:05;95088.47;;;4.85;100.00
58385;BME280;44185;47.844;8.966;2023-04-01T02:18:31;95093.09;;;4.93;100.00
58385;BME280;44185;47.844;8.966;2023-04-01T02:20:59;95089.25;;;4.97;100.00
58385;BME280;44185;47.844;8.966;2023-04-01T02:23:25;95088.41;;;4.96;100.00
58385;BME280;44185;47.844;8.966;2023-04-01T02:25:52;95085.44;;;5.01;100.00
58385;BME280;44185;47.844;8.966;2023-04-01T02:28:20;95092.00;;;4.95;100.00
58385;BME280;44185;47.844;8.966;2023-04-01T02:30:46;95091.88;;;4.97;100.00
58385;BME280;44185;47.844;8.966;2023-04-01T02:33:12;95096.50;;;5.05;100.00
58385;BME280;44185;47.844;8.966;2023-04-01T02:35:38;95099.38;;;5.02;100.00
58385;BME280;44185;47.844;8.966;2023-04-01T02:38:05;95098.66;;;4.99;100.00
58385;BME280;44185;47.844;8.966;2023-04-01T02:40:41;95082.44;;;5.06;100.00
58385;BME280;44185;47.844;8.966;2023-04-01T02:43:06;95099.00;;;5.06;100.00
58385;BME280;44185;47.844;8.966;2023-04-01T02:45:33;95100.41;;;5.10;100.00
58385;BME280;44185;47.844;8.966;2023-04-01T02:47:58;95100.09;;;5.04;100.00
58385;BME280;44185;47.844;8.966;2023-04-01T02:50:24;95100.66;;;5.07;100.00
58385;BME280;44185;47.844;8.966;2023-04-01T02:52:49;95095.16;;;5.10;100.00
58385;BME280;44185;47.844;8.966;2023-04-01T02:55:15;95092.66;;;5.09;100.00
58385;BME280;44185;47.844;8.966;2023-04-01T02:57:40;95092.53;;;5.10;100.00
58385;BME280;44185;47.844;8.966;2023-04-01T03:00:07;95090.75;;;5.11;100.00
58385;BME280;44185;47.844;8.966;2023-04-01T03:02:34;95086.19;;;5.13;100.00
58385;BME280;44185;47.844;8.966;2023-04-01T03:04:59;95081.59;;;5.05;100.00
58385;BME280;44185;47.844;8.966;2023-04-01T03:07:25;95085.19;;;5.04;100.00
58385;BME280;44185;47.844;8.966;2023-04-01T03:09:50;95089.81;;;5.12;100.00
58385;BME280;44185;47.844;8.966;2023-04-01T03:12:15;95097.13;;;5.18;100.00
58385;BME280;44185;47.844;8.966;2023-04-01T03:14:41;95081.53;;;5.17;100.00
58385;BME280;44185;47.844;8.966;2023-04-01T03:17:06;95089.66;;;5.14;100.00
58385;BME280;44185;47.844;8.966;2023-04-01T03:19:33;95084.16;;;5.17;100.00
58385;BME280;44185;47.844;8.966;2023-04-01T03:21:59;95080.56;;;5.18;100.00
58385;BME280;44185;47.844;8.966;2023-04-01T03:24:24;95084.16;;;5.17;100.00
58385;BME280;44185;47.844;8.966;2023-04-01T03:26:49;95081.53;;;5.17;100.00
58385;BME280;44185;47.844;8.966;2023-04-01T03:29:15;95093.19;;;5.24;100.00
58385;BME280;44185;47.844;8.966;2023-04-01T03:31:40;95092.16;;;5.15;100.00
58385;BME280;44185;47.844;8.966;2023-04-01T03:34:06;95089.28;;;5.18;100.00
58385;BME280;44185;47.844;8.966;2023-04-01T03:36:32;95094.66;;;5.17;100.00
58385;BME280;44185;47.844;8.966;2023-04-01T03:38:58;95081.78;;;5.14;100.00
58385;BME280;44185;47.844;8.966;2023-04-01T03:41:23;95086.09;;;5.15;100.00
58385;BME280;44185;47.844;8.966;2023-04-01T03:43:49;95082.75;;;5.12;100.00
58385;BME280;44185;47.844;8.966;2023-04-01T03:46:17;95074.75;;;5.14;100.00
58385;BME280;44185;47.844;8.966;2023-04-01T03:48:42;95083.31;;;5.16;100.00
58385;BME280;44185;47.844;8.966;2023-04-01T03:51:08;95076.41;;;5.15;100.00
58385;BME280;44185;47.844;8.966;2023-04-01T03:53:35;95066.19;;;5.12;100.00
58385;BME280;44185;47.844;8.966;2023-04-01T03:56:03;95065.81;;;5.17;100.00
58385;BME280;44185;47.844;8.966;2023-04-01T03:58:29;95071.63;;;5.20;100.00
58385;BME280;44185;47.844;8.966;2023-04-01T04:00:54;95073.09;;;5.13;100.00
58385;BME280;44185;47.844;8.966;2023-04-01T04:03:20;95066.66;;;5.17;100.00
58385;BME280;44185;47.844;8.966;2023-04-01T04:05:48;95068.28;;;5.18;100.00
58385;BME280;44185;47.844;8.966;2023-04-01T04:08:14;95074.06;;;5.12;100.00
58385;BME280;44185;47.844;8.966;2023-04-01T04:10:43;95085.00;;;5.17;100.00
58385;BME280;44185;47.844;8.966;2023-04-01T04:13:09;95079.75;;;5.17;100.00
58385;BME280;44185;47.844;8.966;2023-04-01T04:15:34;95078.91;;;5.17;100.00
58385;BME280;44185;47.844;8.966;2023-04-01T04:18:00;95078.09;;;5.16;100.00
58385;BME280;44185;47.844;8.966;2023-04-01T04:20:25;95073.78;;;5.15;100.00
58385;BME280;44185;47.844;8.966;2023-04-01T04:22:51;95085.44;;;5.22;100.00
58385;BME280;44185;47.844;8.966;2023-04-01T04:25:17;95090.41;;;5.26;100.00
58385;BME280;44185;47.844;8.966;2023-04-01T04:27:43;95091.66;;;5.21;100.00
58385;BME280;44185;47.844;8.966;2023-04-01T04:30:09;95090.25;;;5.17;100.00
58385;BME280;44185;47.844;8.966;2023-04-01T04:32:35;95093.31;;;5.22;100.00
58385;BME280;44185;47.844;8.966;2023-04-01T04:35:01;95099.75;;;5.18;100.00
58385;BME280;44185;47.844;8.966;2023-04-01T04:37:26;95093.22;;;5.12;100.00
58385;BME280;44185;47.844;8.966;2023-04-01T04:39:52;95100.84;;;5.16;100.00
58385;BME280;44185;47.844;8.966;2023-04-01T04:42:17;95093.22;;;5.12;100.00
58385;BME280;44185;47.844;8.966;2023-04-01T04:44:44;95095.75;;;5.14;100.00
58385;BME280;44185;47.844;8.966;2023-04-01T04:47:10;95099.31;;;5.13;100.00
58385;BME280;44185;47.844;8.966;2023-04-01T04:49:35;95092.16;;;5.15;100.00
58385;BME280;44185;47.844;8.966;2023-04-01T04:52:01;95103.41;;;5.06;100.00
58385;BME280;44185;47.844;8.966;2023-04-01T04:54:26;95109.34;;;5.08;100.00
58385;BME280;44185;47.844;8.966;2023-04-01T04:56:52;95101.88;;;5.03;100.00
58385;BME280;44185;47.844;8.966;2023-04-01T04:59:17;95104.50;;;5.03;100.00
58385;BME280;44185;47.844;8.966;2023-04-01T05:01:44;95101.16;;;5.01;100.00
58385;BME280;44185;47.844;8.966;2023-04-01T05:04:10;95096.88;;;5.00;100.00
58385;BME280;44185;47.844;8.966;2023-04-01T05:06:35;95101.88;;;5.03;100.00
58385;BME280;44185;47.844;8.966;2023-04-01T05:09:01;95109.03;;;5.01;100.00
58385;BME280;44185;47.844;8.966;2023-04-01T05:11:27;95103.91;;;4.99;100.00
58385;BME280;44185;47.844;8.966;2023-04-01T05:13:52;95101.41;;;4.98;100.00
58385;BME280;44185;47.844;8.966;2023-04-01T05:16:19;95104.66;;;4.90;100.00
58385;BME280;44185;47.844;8.966;2023-04-01T05:18:47;95106.06;;;4.94;100.00
58385;BME280;44185;47.844;8.966;2023-04-01T05:21:14;95112.16;;;4.95;100.00
58385;BME280;44185;47.844;8.966;2023-04-01T05:23:40;95095.75;;;4.81;100.00
58385;BME280;44185;47.844;8.966;2023-04-01T05:26:06;95105.13;;;4.95;100.00
58385;BME280;44185;47.844;8.966;2023-04-01T05:28:32;95096.66;;;4.92;100.00
58385;BME280;44185;47.844;8.966;2023-04-01T05:30:58;95102.53;;;4.84;100.00
58385;BME280;44185;47.844;8.966;2023-04-01T05:33:24;95099.41;;;4.90;100.00
58385;BME280;44185;47.844;8.966;2023-04-01T05:35:51;95101.91;;;4.92;100.00
58385;BME280;44185;47.844;8.966;2023-04-01T05:38:17;95106.69;;;4.86;100.00
58385;BME280;44185;47.844;8.966;2023-04-01T05:40:42;95102.78;;;4.81;100.00
58385;BME280;44185;47.844;8.966;2023-04-01T05:43:08;95097.91;;;4.76;100.00
58385;BME280;44185;47.844;8.966;2023-04-01T05:45:33;95098.97;;;4.85;100.00
58385;BME280;44185;47.844;8.966;2023-04-01T05:47:59;95098.97;;;4.85;100.00
58385;BME280;44185;47.844;8.966;2023-04-01T05:50:24;95101.97;;;4.80;100.00
58385;BME280;44185;47.844;8.966;2023-04-01T05:52:51;95099.34;;;4.80;100.00
58385;BME280;44185;47.844;8.966;2023-04-01T05:55:17;95089.81;;;4.79;100.00
58385;BME280;44185;47.844;8.966;2023-04-01T05:57:44;95090.25;;;4.84;100.00
58385;BME280;44185;47.844;8.966;2023-04-01T06:00:11;95088.47;;;4.85;100.00
58385;BME280;44185;47.844;8.966;2023-04-01T06:02:36;95099.53;;;4.88;100.00
58385;BME280;44185;47.844;8.966;2023-04-01T06:05:09;95096.22;;;4.86;100.00
58385;BME280;44185;47.844;8.966;2023-04-01T06:07:36;95103.09;;;4.99;100.00
58385;BME280;44185;47.844;8.966;2023-04-01T06:10:11;95104.75;;;5.00;100.00
58385;BME280;44185;47.844;8.966;2023-04-01T06:12:45;95102.25;;;4.98;100.00
58385;BME280;44185;47.844;8.966;2023-04-01T06:15:25;95101.16;;;5.01;100.00
58385;BME280;44185;47.844;8.966;2023-04-01T06:21:07;95105.88;;;5.07;100.00
58385;BME280;44185;47.844;8.966;2023-04-01T06:23:47;95115.44;;;5.08;100.00
58385;BME280;44185;47.844;8.966;2023-04-01T06:26:24;95119.13;;;5.06;100.00
58385;BME280;44185;47.844;8.966;2023-04-01T06:29:13;95107.31;;;5.11;100.00
58385;BME280;44185;47.844;8.966;2023-04-01T06:32:01;95107.78;;;5.17;100.00
58385;BME280;44185;47.844;8.966;2023-04-01T06:34:58;95113.97;;;5.16;100.00
58385;BME280;44185;47.844;8.966;2023-04-01T06:37:46;95112.63;;;5.21;100.00
58385;BME280;44185;47.844;8.966;2023-04-01T06:40:31;95121.34;;;5.22;100.00
58385;BME280;44185;47.844;8.966;2023-04-01T06:43:14;95117.63;;;5.25;100.00
58385;BME280;44185;47.844;8.966;2023-04-01T06:45:47;95128.22;;;5.23;100.00
58385;BME280;44185;47.844;8.966;2023-04-01T06:48:29;95124.16;;;5.30;100.00
58385;BME280;44185;47.844;8.966;2023-04-01T06:51:10;95122.53;;;5.39;100.00
58385;BME280;44185;47.844;8.966;2023-04-01T06:53:43;95118.13;;;5.40;100.00
58385;BME280;44185;47.844;8.966;2023-04-01T06:56:14;95113.59;;;5.42;100.00
58385;BME280;44185;47.844;8.966;2023-04-01T06:58:46;95108.69;;;5.49;100.00
58385;BME280;44185;47.844;8.966;2023-04-01T07:01:18;95103.69;;;5.45;100.00
58385;BME280;44185;47.844;8.966;2023-04-01T07:03:51;95099.00;;;5.49;100.00
58385;BME280;44185;47.844;8.966;2023-04-01T07:06:25;95095.84;;;5.55;100.00
58385;BME280;44185;47.844;8.966;2023-04-01T07:08:53;95085.53;;;5.64;100.00
58385;BME280;44185;47.844;8.966;2023-04-01T07:11:24;95090.09;;;5.62;100.00
58385;BME280;44185;47.844;8.966;2023-04-01T07:13:55;95093.28;;;5.65;100.00
58385;BME280;44185;47.844;8.966;2023-04-01T07:16:27;95093.34;;;5.75;100.00
58385;BME280;44185;47.844;8.966;2023-04-01T07:19:01;95099.88;;;5.81;100.00
58385;BME280;44185;47.844;8.966;2023-04-01T07:21:32;95100.03;;;5.89;100.00
58385;BME280;44185;47.844;8.966;2023-04-01T07:24:03;95111.41;;;6.00;100.00
58385;BME280;44185;47.844;8.966;2023-04-01T07:26:30;95104.34;;;6.00;100.00
58385;BME280;44185;47.844;8.966;2023-04-01T07:28:57;95105.88;;;6.03;100.00
58385;BME280;44185;47.844;8.966;2023-04-01T07:31:34;95109.59;;;6.00;100.00
58385;BME280;44185;47.844;8.966;2023-04-01T07:34:08;95115.56;;;6.03;100.00
58385;BME280;44185;47.844;8.966;2023-04-01T07:36:39;95111.72;;;6.07;100.00
58385;BME280;44185;47.844;8.966;2023-04-01T07:39:16;95112.50;;;5.97;100.00
58385;BME280;44185;47.844;8.966;2023-04-01T07:41:51;95113.22;;;5.99;100.00
58385;BME280;44185;47.844;8.966;2023-04-01T07:44:24;95111.84;;;6.05;100.00
58385;BME280;44185;47.844;8.966;2023-04-01T07:47:10;95120.25;;;5.99;100.00
58385;BME280;44185;47.844;8.966;2023-04-01T07:49:48;95115.69;;;6.01;100.00
58385;BME280;44185;47.844;8.966;2023-04-01T07:52:19;95117.09;;;6.05;100.00
58385;BME280;44185;47.844;8.966;2023-04-01T07:54:50;95134.53;;;6.06;100.00
58385;BME280;44185;47.844;8.966;2023-04-01T07:57:21;95130.63;;;6.00;100.00
58385;BME280;44185;47.844;8.966;2023-04-01T07:59:57;95129.09;;;5.98;100.00
58385;BME280;44185;47.844;8.966;2023-04-01T08:02:31;95123.91;;;6.08;100.00
58385;BME280;44185;47.844;8.966;2023-04-01T08:05:09;95137.75;;;6.10;100.00
58385;BME280;44185;47.844;8.966;2023-04-01T08:07:44;95127.88;;;6.02;100.00
58385;BME280;44185;47.844;8.966;2023-04-01T08:10:18;95137.09;;;5.96;100.00
58385;BME280;44185;47.844;8.966;2023-04-01T08:12:53;95136.78;;;5.89;100.00
58385;BME280;44185;47.844;8.966;2023-04-01T08:15:27;95132.91;;;5.84;100.00
58385;BME280;44185;47.844;8.966;2023-04-01T08:18:05;95129.56;;;5.82;100.00
58385;BME280;44185;47.844;8.966;2023-04-01T08:20:37;95135.53;;;5.84;100.00
58385;BME280;44185;47.844;8.966;2023-04-01T08:23:07;95145.19;;;5.83;100.00
58385;BME280;44185;47.844;8.966;2023-04-01T08:25:38;95133.59;;;5.86;100.00
58385;BME280;44185;47.844;8.966;2023-04-01T08:28:11;95136.22;;;5.86;100.00
58385;BME280;44185;47.844;8.966;2023-04-01T08:30:43;95135.69;;;5.92;100.00
58385;BME280;44185;47.844;8.966;2023-04-01T08:33:13;95141.78;;;5.93;100.00
58385;BME280;44185;47.844;8.966;2023-04-01T08:35:46;95139.56;;;5.88;100.00
58385;BME280;44185;47.844;8.966;2023-04-01T08:38:16;95138.16;;;5.84;100.00
58385;BME280;44185;47.844;8.966;2023-04-01T08:40:58;95143.97;;;5.87;100.00
58385;BME280;44185;47.844;8.966;2023-04-01T08:43:38;95143.13;;;5.87;100.00
58385;BME280;44185;47.844;8.966;2023-04-01T08:46:32;95130.84;;;5.87;100.00
58385;BME280;44185;47.844;8.966;2023-04-01T08:49:09;95130.06;;;5.97;100.00
58385;BME280;44185;47.844;8.966;2023-04-01T08:51:58;95133.22;;;5.90;100.00
58385;BME280;44185;47.844;8.966;2023-04-01T08:54:58;95137.88;;;5.87;100.00
58385;BME280;44185;47.844;8.966;2023-04-01T08:57:37;95144.22;;;5.84;100.00
58385;BME280;44185;47.844;8.966;2023-04-01T09:00:15;95141.59;;;5.84;100.00
58385;BME280;44185;47.844;8.966;2023-04-01T09:02:54;95144.22;;;5.84;100.00
58385;BME280;44185;47.844;8.966;2023-04-01T09:05:34;95146.41;;;5.79;100.00
58385;BME280;44185;47.844;8.966;2023-04-01T09:08:08;95147.13;;;5.81;100.00
58385;BME280;44185;47.844;8.966;2023-04-01T09:10:50;95142.38;;;5.75;100.00
58385;BME280;44185;47.844;8.966;2023-04-01T09:13:43;95142.84;;;5.80;100.00
58385;BME280;44185;47.844;8.966;2023-04-01T09:16:42;95149.19;;;5.77;100.00
58385;BME280;44185;47.844;8.966;2023-04-01T09:19:19;95146.59;;;5.87;100.00
58385;BME280;44185;47.844;8.966;2023-04-01T09:22:07;95140.94;;;5.92;100.00
58385;BME280;44185;47.844;8.966;2023-04-01T09:25:06;95149.53;;;5.94;100.00
58385;BME280;44185;47.844;8.966;2023-04-01T09:27:44;95133.47;;;5.87;100.00
58385;BME280;44185;47.844;8.966;2023-04-01T09:30:38;95139.84;;;5.95;100.00
58385;BME280;44185;47.844;8.966;2023-04-01T09:36:31;95155.09;;;6.01;100.00
58385;BME280;44185;47.844;8.966;2023-04-01T09:39:14;95145.38;;;6.13;100.00
58385;BME280;44185;47.844;8.966;2023-04-01T09:41:52;95144.59;;;6.01;100.00
58385;BME280;44185;47.844;8.966;2023-04-01T09:44:26;95145.38;;;6.13;100.00
58385;BME280;44185;47.844;8.966;2023-04-01T09:47:10;95148.81;;;6.14;100.00
58385;BME280;44185;47.844;8.966;2023-04-01T09:49:57;95147.59;;;6.18;100.00
58385;BME280;44185;47.844;8.966;2023-04-01T09:52:35;95157.03;;;6.20;100.00
58385;BME280;44185;47.844;8.966;2023-04-01T09:55:16;95147.47;;;6.19;100.00
58385;BME280;44185;47.844;8.966;2023-04-01T10:07:00;95160.25;;;6.34;100.00
58385;BME280;44185;47.844;8.966;2023-04-01T10:09:58;95154.81;;;6.26;100.00
58385;BME280;44185;47.844;8.966;2023-04-01T10:12:58;95151.94;;;6.29;100.00
58385;BME280;44185;47.844;8.966;2023-04-01T10:15:49;95143.94;;;6.40;100.00
58385;BME280;44185;47.844;8.966;2023-04-01T10:18:41;95150.44;;;6.36;100.00
58385;BME280;44185;47.844;8.966;2023-04-01T10:27:43;95159.78;;;6.60;100.00
58385;BME280;44185;47.844;8.966;2023-04-01T10:30:38;95153.25;;;6.54;100.00
58385;BME280;44185;47.844;8.966;2023-04-01T10:36:41;95160.97;;;6.46;100.00
58385;BME280;44185;47.844;8.966;2023-04-01T10:39:22;95160.13;;;6.45;100.00
58385;BME280;44185;47.844;8.966;2023-04-01T10:42:22;95160.56;;;6.51;100.00
58385;BME280;44185;47.844;8.966;2023-04-01T10:45:07;95157.16;;;6.60;100.00
58385;BME280;44185;47.844;8.966;2023-04-01T10:48:05;95152.41;;;6.54;100.00
58385;BME280;44185;47.844;8.966;2023-04-01T10:50:58;95152.75;;;6.71;100.00
58385;BME280;44185;47.844;8.966;2023-04-01T10:53:37;95151.75;;;6.72;100.00
58385;BME280;44185;47.844;8.966;2023-04-01T10:56:22;95155.38;;;6.71;100.00
58385;BME280;44185;47.844;8.966;2023-04-01T11:08:58;95151.50;;;6.85;100.00
58385;BME280;44185;47.844;8.966;2023-04-01T11:18:35;95150.00;;;7.12;100.00
58385;BME280;44185;47.844;8.966;2023-04-01T11:21:28;95147.53;;;7.20;100.00
58385;BME280;44185;47.844;8.966;2023-04-01T11:24:14;95141.84;;;7.25;100.00
58385;BME280;44185;47.844;8.966;2023-04-01T11:26:52;95141.44;;;7.30;100.00
58385;BME280;44185;47.844;8.966;2023-04-01T11:32:16;95137.16;;;7.29;100.00
58385;BME280;44185;47.844;8.966;2023-04-01T11:34:57;95146.81;;;7.38;100.00
58385;BME280;44185;47.844;8.966;2023-04-01T11:37:29;95146.44;;;7.43;100.00
58385;BME280;44185;47.844;8.966;2023-04-01T11:40:08;95147.09;;;7.55;100.00
58385;BME280;44185;47.844;8.966;2023-04-01T11:42:42;95147.34;;;7.72;100.00
58385;BME280;44185;47.844;8.966;2023-04-01T11:45:20;95138.75;;;7.79;100.00
58385;BME280;44185;47.844;8.966;2023-04-01T11:48:03;95145.28;;;7.65;100.00
58385;BME280;44185;47.844;8.966;2023-04-01T11:53:33;95147.72;;;7.87;100.00
58385;BME280;44185;47.844;8.966;2023-04-01T11:56:14;95153.16;;;7.85;100.00
58385;BME280;44185;47.844;8.966;2023-04-01T12:01:36;95143.72;;;7.83;100.00
58385;BME280;44185;47.844;8.966;2023-04-01T12:04:31;95155.38;;;7.70;100.00
58385;BME280;44185;47.844;8.966;2023-04-01T12:07:08;95158.31;;;7.67;100.00
58385;BME280;44185;47.844;8.966;2023-04-01T12:09:46;95158.31;;;7.47;100.00
58385;BME280;44185;47.844;8.966;2023-04-01T12:12:20;95155.16;;;7.53;100.00
58385;BME280;44185;47.844;8.966;2023-04-01T12:14:58;95165.94;;;7.50;100.00
58385;BME280;44185;47.844;8.966;2023-04-01T12:17:31;95167.59;;;7.41;100.00
58385;BME280;44185;47.844;8.966;2023-04-01T12:20:16;95162.34;;;7.41;100.00
58385;BME280;44185;47.844;8.966;2023-04-01T12:22:50;95167.75;;;7.50;100.00
58385;BME280;44185;47.844;8.966;2023-04-01T12:25:45;95172.19;;;7.39;100.00
58385;BME280;44185;47.844;8.966;2023-04-01T12:28:21;95178.25;;;7.60;100.00
58385;BME280;44185;47.844;8.966;2023-04-01T12:31:01;95172.47;;;7.56;100.00
58385;BME280;44185;47.844;8.966;2023-04-01T12:33:50;95167.03;;;7.57;100.00
58385;BME280;44185;47.844;8.966;2023-04-01T12:39:17;95161.78;;;7.57;100.00
58385;BME280;44185;47.844;8.966;2023-04-01T12:41:55;95168.69;;;7.68;100.00
58385;BME280;44185;47.844;8.966;2023-04-01T12:44:36;95170.63;;;7.76;100.00
58385;BME280;44185;47.844;8.966;2023-04-01T12:47:35;95160.75;;;7.88;100.00
58385;BME280;44185;47.844;8.966;2023-04-01T12:50:22;95163.50;;;7.97;100.00
58385;BME280;44185;47.844;8.966;2023-04-01T12:53:02;95171.69;;;8.04;100.00
58385;BME280;44185;47.844;8.966;2023-04-01T12:55:39;95166.25;;;8.05;100.00
58385;BME280;44185;47.844;8.966;2023-04-01T13:01:23;95162.22;;;8.11;100.00
58385;BME280;44185;47.844;8.966;2023-04-01T13:04:15;95165.03;;;7.99;100.00
58385;BME280;44185;47.844;8.966;2023-04-01T13:07:02;95162.50;;;8.08;100.00
58385;BME280;44185;47.844;8.966;2023-04-01T13:09:40;95163.50;;;8.07;100.00
58385;BME280;44185;47.844;8.966;2023-04-01T13:12:29;95165.97;;;8.08;100.00
58385;BME280;44185;47.844;8.966;2023-04-01T13:15:20;95161.59;;;7.89;100.00
58385;BME280;44185;47.844;8.966;2023-04-01T13:17:50;95161.47;;;7.90;100.00
58385;BME280;44185;47.844;8.966;2023-04-01T13:20:28;95167.13;;;7.86;100.00
58385;BME280;44185;47.844;8.966;2023-04-01T13:23:07;95157.63;;;7.75;100.00
58385;BME280;44185;47.844;8.966;2023-04-01T13:25:39;95169.94;;;7.74;100.00
58385;BME280;44185;47.844;8.966;2023-04-01T13:28:14;95173.63;;;7.92;100.00
58385;BME280;44185;47.844;8.966;2023-04-01T13:30:49;95164.50;;;7.86;100.00
58385;BME280;44185;47.844;8.966;2023-04-01T13:33:26;95161.31;;;7.92;100.00
58385;BME280;44185;47.844;8.966;2023-04-01T13:35:58;95160.75;;;7.88;100.00
58385;BME280;44185;47.844;8.966;2023-04-01T13:38:47;95157.63;;;7.75;100.00
58385;BME280;44185;47.844;8.966;2023-04-01T13:41:22;95177.56;;;7.77;100.00
58385;BME280;44185;47.844;8.966;2023-04-01T13:43:58;95164.53;;;7.66;100.00
58385;BME280;44185;47.844;8.966;2023-04-01T13:46:39;95172.84;;;7.71;100.00
58385;BME280;44185;47.844;8.966;2023-04-01T13:49:20;95183.53;;;7.70;100.00
58385;BME280;44185;47.844;8.966;2023-04-01T13:52:06;95182.13;;;7.65;100.00
58385;BME280;44185;47.844;8.966;2023-04-01T13:55:10;95177.16;;;7.62;100.00
58385;BME280;44185;47.844;8.966;2023-04-01T13:57:56;95182.41;;;7.62;100.00
58385;BME280;44185;47.844;8.966;2023-04-01T14:00:51;95181.72;;;7.60;100.00
58385;BME280;44185;47.844;8.966;2023-04-01T14:03:28;95187.00;;;7.60;100.00
58385;BME280;44185;47.844;8.966;2023-04-01T14:06:12;95171.63;;;7.55;100.00
58385;BME280;44185;47.844;8.966;2023-04-01T14:08:52;95173.69;;;7.62;100.00
58385;BME280;44185;47.844;8.966;2023-04-01T14:11:25;95174.41;;;7.64;100.00
58385;BME280;44185;47.844;8.966;2023-04-01T14:13:58;95171.50;;;7.67;100.00
58385;BME280;44185;47.844;8.966;2023-04-01T14:16:50;95166.22;;;7.67;100.00
58385;BME280;44185;47.844;8.966;2023-04-01T14:19:33;95168.03;;;7.66;100.00
58385;BME280;44185;47.844;8.966;2023-04-01T14:22:12;95167.19;;;7.66;100.00
58385;BME280;44185;47.844;8.966;2023-04-01T14:24:45;95161.06;;;7.75;100.00
58385;BME280;44185;47.844;8.966;2023-04-01T14:27:28;95158.72;;;7.72;100.00
58385;BME280;44185;47.844;8.966;2023-04-01T14:29:59;95169.09;;;7.74;100.00
58385;BME280;44185;47.844;8.966;2023-04-01T14:32:34;95165.91;;;7.70;100.00
58385;BME280;44185;47.844;8.966;2023-04-01T14:38:11;95159.41;;;7.64;100.00